createdAt,value
2022-09-17T00:00:39.062Z,11.50
2022-09-17T00:03:06.953Z,11.50
2022-09-17T00:05:34.015Z,11.50
2022-09-17T00:08:00.805Z,11.50
2022-09-17T00:10:27.543Z,11.50
2022-09-17T00:12:54.300Z,11.50
2022-09-17T00:15:20.967Z,11.50
2022-09-17T00:17:48.003Z,11.40
2022-09-17T00:20:14.766Z,11.40
2022-09-17T00:22:41.478Z,11.30
2022-09-17T00:25:08.753Z,11.30
2022-09-17T00:27:35.769Z,11.30
2022-09-17T00:30:02.910Z,11.30
2022-09-17T00:32:30.258Z,11.30
2022-09-17T00:34:57.052Z,11.30
2022-09-17T00:37:23.793Z,11.30
2022-09-17T00:39:50.574Z,11.40
2022-09-17T00:42:18.910Z,11.40
2022-09-17T00:44:54.477Z,11.40
2022-09-17T00:47:30.456Z,11.40
2022-09-17T00:50:19.962Z,11.40
2022-09-17T00:52:52.996Z,11.50
2022-09-17T00:55:21.917Z,11.50
2022-09-17T00:57:50.983Z,11.50
2022-09-17T01:00:18.179Z,11.50
2022-09-17T01:02:46.043Z,11.50
2022-09-17T01:05:13.788Z,11.50
2022-09-17T01:08:06.524Z,11.50
2022-09-17T01:10:55.657Z,11.50
2022-09-17T01:13:50.138Z,11.50
2022-09-17T01:16:46.810Z,11.50
2022-09-17T01:19:38.369Z,11.50
2022-09-17T01:22:22.135Z,11.50
2022-09-17T01:25:09.061Z,11.50
2022-09-17T01:27:53.821Z,11.50
2022-09-17T01:30:57.670Z,11.50
2022-09-17T01:33:44.342Z,11.50
2022-09-17T01:36:48.762Z,11.40
2022-09-17T01:39:28.110Z,11.50
2022-09-17T01:42:03.977Z,11.40
2022-09-17T01:44:50.972Z,11.40
2022-09-17T01:47:26.364Z,11.30
2022-09-17T01:50:00.122Z,11.30
2022-09-17T01:52:28.972Z,11.20
2022-09-17T01:55:00.838Z,11.20
2022-09-17T01:57:36.900Z,11.20
2022-09-17T02:00:11.891Z,11.20
2022-09-17T02:03:30.362Z,11.20
2022-09-17T02:06:03.514Z,11.20
2022-09-17T02:08:34.535Z,11.20
2022-09-17T02:11:08.674Z,11.10
2022-09-17T02:14:01.408Z,11.10
2022-09-17T02:16:31.018Z,11.10
2022-09-17T02:19:15.910Z,11.20
2022-09-17T02:22:19.889Z,11.20
2022-09-17T02:24:52.582Z,11.20
2022-09-17T02:27:37.774Z,11.10
2022-09-17T02:30:05.798Z,11.10
2022-09-17T02:32:33.652Z,11.10
2022-09-17T02:35:00.482Z,11.10
2022-09-17T02:37:27.697Z,11.10
2022-09-17T02:39:55.130Z,11.10
2022-09-17T02:42:35.685Z,11.10
2022-09-17T02:45:24.099Z,11.10
2022-09-17T02:48:20.883Z,11.10
2022-09-17T02:51:24.443Z,11.20
2022-09-17T02:54:31.745Z,11.10
2022-09-17T02:57:07.171Z,11.10
2022-09-17T02:59:42.493Z,11.00
2022-09-17T03:02:20.406Z,11.00
2022-09-17T03:04:49.720Z,10.90
2022-09-17T03:07:18.835Z,10.90
2022-09-17T03:09:45.675Z,10.90
2022-09-17T03:12:13.211Z,10.80
2022-09-17T03:14:40.012Z,10.80
2022-09-17T03:17:06.905Z,10.80
2022-09-17T03:19:33.633Z,10.80
2022-09-17T03:22:00.357Z,10.70
2022-09-17T03:24:27.170Z,10.70
2022-09-17T03:26:53.932Z,10.70
2022-09-17T03:29:20.719Z,10.70
2022-09-17T03:31:47.603Z,10.70
2022-09-17T03:34:14.344Z,10.80
2022-09-17T03:36:41.062Z,10.70
2022-09-17T03:39:07.904Z,10.80
2022-09-17T03:41:34.612Z,10.80
2022-09-17T03:44:01.482Z,10.80
2022-09-17T03:46:28.218Z,10.80
2022-09-17T03:48:54.982Z,10.80
2022-09-17T03:51:21.692Z,10.80
2022-09-17T03:56:48.505Z,10.80
2022-09-17T03:59:15.344Z,10.70
2022-09-17T04:01:42.218Z,10.80
2022-09-17T04:04:09.479Z,10.70
2022-09-17T04:06:36.223Z,10.70
2022-09-17T04:09:05.092Z,10.80
2022-09-17T04:11:32.025Z,10.70
2022-09-17T04:13:58.970Z,10.70
2022-09-17T04:16:25.814Z,10.70
2022-09-17T04:18:52.620Z,10.70
2022-09-17T04:21:19.263Z,10.70
2022-09-17T04:23:45.945Z,10.70
2022-09-17T04:26:12.719Z,10.70
2022-09-17T04:28:39.452Z,10.70
2022-09-17T04:31:06.282Z,10.60
2022-09-17T04:33:33.093Z,10.60
2022-09-17T04:35:59.776Z,10.60
2022-09-17T04:38:26.740Z,10.50
2022-09-17T04:40:54.504Z,10.50
2022-09-17T04:43:21.187Z,10.50
2022-09-17T04:45:49.370Z,10.50
2022-09-17T04:48:16.442Z,10.50
2022-09-17T04:50:43.204Z,10.50
2022-09-17T04:53:09.997Z,10.50
2022-09-17T04:55:36.683Z,10.50
2022-09-17T04:58:04.445Z,10.40
2022-09-17T05:00:31.193Z,10.40
2022-09-17T05:02:57.961Z,10.40
2022-09-17T05:05:24.742Z,10.30
2022-09-17T05:07:51.429Z,10.30
2022-09-17T05:10:20.420Z,10.40
2022-09-17T05:12:55.277Z,10.40
2022-09-17T05:15:23.668Z,10.40
2022-09-17T05:17:50.421Z,10.40
2022-09-17T05:20:17.712Z,10.40
2022-09-17T05:22:49.981Z,10.40
2022-09-17T05:25:18.614Z,10.50
2022-09-17T05:27:45.528Z,10.50
2022-09-17T05:30:13.056Z,10.50
2022-09-17T05:32:40.715Z,10.50
2022-09-17T05:35:08.771Z,10.50
2022-09-17T05:37:36.250Z,10.50
2022-09-17T05:40:05.793Z,10.50
2022-09-17T05:42:32.662Z,10.50
2022-09-17T05:44:59.520Z,10.50
2022-09-17T05:47:26.268Z,10.50
2022-09-17T05:49:52.938Z,10.50
2022-09-17T05:52:19.680Z,10.50
2022-09-17T05:54:46.735Z,10.50
2022-09-17T05:57:13.431Z,10.50
2022-09-17T05:59:40.168Z,10.50
2022-09-17T06:02:06.920Z,10.50
2022-09-17T06:04:35.044Z,10.40
2022-09-17T06:07:07.317Z,10.40
2022-09-17T06:09:36.429Z,10.40
2022-09-17T06:12:04.655Z,10.40
2022-09-17T06:14:31.337Z,10.40
2022-09-17T06:16:58.118Z,10.40
2022-09-17T06:19:24.788Z,10.40
2022-09-17T06:21:51.791Z,10.50
2022-09-17T06:24:18.515Z,10.50
2022-09-17T06:26:45.362Z,10.50
2022-09-17T06:29:15.066Z,10.50
2022-09-17T06:31:44.809Z,10.60
2022-09-17T06:34:12.231Z,10.60
2022-09-17T06:36:39.263Z,10.60
2022-09-17T06:39:06.769Z,10.60
2022-09-17T06:41:33.562Z,10.60
2022-09-17T06:44:02.150Z,10.60
2022-09-17T06:46:28.932Z,10.70
2022-09-17T06:48:55.800Z,10.70
2022-09-17T06:51:22.682Z,10.70
2022-09-17T06:53:49.558Z,10.70
2022-09-17T06:56:16.548Z,10.70
2022-09-17T06:58:43.823Z,10.70
2022-09-17T07:01:12.060Z,10.70
2022-09-17T07:03:39.039Z,10.80
2022-09-17T07:06:09.951Z,10.70
2022-09-17T07:08:36.915Z,10.70
2022-09-17T07:11:03.726Z,10.70
2022-09-17T07:13:30.487Z,10.70
2022-09-17T07:16:00.478Z,10.60
2022-09-17T07:18:27.777Z,10.60
2022-09-17T07:21:01.372Z,10.50
2022-09-17T07:23:33.426Z,10.40
2022-09-17T07:26:08.985Z,10.40
2022-09-17T07:28:38.202Z,10.30
2022-09-17T07:31:06.314Z,10.40
2022-09-17T07:33:35.312Z,10.40
2022-09-17T07:36:05.132Z,10.50
2022-09-17T07:38:36.583Z,10.50
2022-09-17T07:41:27.935Z,10.50
2022-09-17T07:44:10.795Z,10.60
2022-09-17T07:46:45.685Z,10.60
2022-09-17T07:49:17.158Z,10.60
2022-09-17T07:52:51.465Z,10.60
2022-09-17T07:55:40.160Z,10.50
2022-09-17T07:58:52.817Z,10.50
2022-09-17T08:02:04.460Z,10.40
2022-09-17T08:04:36.441Z,10.40
2022-09-17T08:07:20.611Z,10.30
2022-09-17T08:14:42.452Z,10.40
2022-09-17T08:17:09.367Z,10.50
2022-09-17T08:20:07.755Z,10.50
2022-09-17T08:27:13.613Z,10.60
2022-09-17T08:30:47.274Z,10.70
2022-09-17T08:33:16.998Z,10.80
2022-09-17T08:55:02.519Z,11.10
2022-09-17T08:57:38.450Z,11.10
2022-09-17T09:00:25.972Z,11.10
2022-09-17T09:07:45.081Z,11.20
2022-09-17T09:10:27.630Z,11.30
2022-09-17T09:12:57.749Z,11.40
2022-09-17T09:15:41.272Z,11.40
2022-09-17T09:18:23.855Z,11.40
2022-09-17T09:21:32.338Z,11.40
2022-09-17T09:24:14.630Z,11.40
2022-09-17T09:26:49.039Z,11.40
2022-09-17T09:29:37.852Z,11.40
2022-09-17T09:32:20.234Z,11.50
2022-09-17T09:34:49.046Z,11.50
2022-09-17T09:37:25.891Z,11.50
2022-09-17T09:39:55.180Z,11.50
2022-09-17T09:42:30.511Z,11.60
2022-09-17T09:45:06.756Z,11.70
2022-09-17T09:47:58.010Z,11.80
2022-09-17T09:50:48.378Z,11.80
2022-09-17T09:53:49.452Z,11.80
2022-09-17T09:56:44.487Z,11.80
2022-09-17T09:59:14.910Z,11.80
2022-09-17T10:01:43.657Z,11.80
2022-09-17T10:04:15.796Z,11.80
2022-09-17T10:06:42.602Z,11.80
2022-09-17T10:09:11.938Z,11.80
2022-09-17T10:11:39.511Z,11.80
2022-09-17T10:14:27.299Z,11.90
2022-09-17T10:17:15.584Z,12.00
2022-09-17T10:19:43.261Z,12.00
2022-09-17T10:22:20.710Z,12.10
2022-09-17T10:24:47.918Z,12.10
2022-09-17T10:27:18.064Z,12.00
2022-09-17T10:29:47.128Z,12.00
2022-09-17T10:32:22.712Z,11.90
2022-09-17T10:35:07.755Z,11.90
2022-09-17T10:37:44.947Z,12.00
2022-09-17T10:40:20.649Z,12.00
2022-09-17T10:42:54.569Z,12.00
2022-09-17T10:45:29.714Z,12.10
2022-09-17T10:47:59.008Z,12.10
2022-09-17T10:50:32.110Z,12.30
2022-09-17T10:53:02.144Z,12.40
2022-09-17T10:55:46.922Z,12.50
2022-09-17T10:58:24.941Z,12.60
2022-09-17T11:01:22.544Z,12.70
2022-09-17T11:03:52.050Z,12.80
2022-09-17T11:06:42.469Z,12.80
2022-09-17T11:09:41.552Z,12.80
2022-09-17T11:12:17.768Z,12.80
2022-09-17T11:14:53.970Z,12.80
2022-09-17T11:17:34.311Z,12.80
2022-09-17T11:20:22.715Z,12.80
2022-09-17T11:22:55.475Z,12.80
2022-09-17T11:25:45.198Z,12.80
2022-09-17T11:28:36.478Z,12.90
2022-09-17T11:31:29.387Z,12.90
2022-09-17T11:34:14.122Z,12.90
2022-09-17T11:37:04.411Z,13.00
2022-09-17T11:39:59.655Z,13.00
2022-09-17T11:42:33.694Z,13.00
2022-09-17T11:45:05.815Z,13.00
2022-09-17T11:47:49.754Z,12.90
2022-09-17T11:50:48.660Z,12.90
2022-09-17T11:53:25.639Z,13.00
2022-09-17T11:55:55.660Z,13.10
2022-09-17T11:58:43.895Z,13.10
2022-09-17T12:01:25.699Z,13.20
2022-09-17T12:04:16.892Z,13.40
2022-09-17T12:06:52.324Z,13.60
2022-09-17T12:09:26.751Z,13.80
2022-09-17T12:12:45.058Z,13.90
2022-09-17T12:15:18.383Z,13.90
2022-09-17T12:17:50.896Z,14.00
2022-09-17T12:20:30.502Z,14.00
2022-09-17T12:22:59.898Z,14.00
2022-09-17T12:25:34.822Z,14.00
2022-09-17T12:28:21.746Z,14.00
2022-09-17T12:31:19.518Z,14.00
2022-09-17T12:34:23.220Z,14.00
2022-09-17T12:37:17.820Z,13.90
2022-09-17T12:40:15.055Z,13.90
2022-09-17T12:42:53.348Z,13.90
2022-09-17T12:45:51.483Z,13.90
2022-09-17T12:48:41.080Z,13.90
2022-09-17T12:51:36.880Z,13.90
2022-09-17T12:54:16.684Z,13.80
2022-09-17T12:57:14.035Z,13.60
2022-09-17T13:00:01.724Z,13.50
2022-09-17T13:02:37.147Z,13.50
2022-09-17T13:05:09.899Z,13.30
2022-09-17T13:07:48.874Z,13.30
2022-09-17T13:10:51.855Z,13.10
2022-09-17T13:13:36.494Z,12.50
2022-09-17T13:16:22.070Z,12.00
2022-09-17T13:19:25.451Z,11.50
2022-09-17T13:22:03.770Z,11.20
2022-09-17T13:24:31.532Z,10.90
2022-09-17T13:27:01.236Z,10.90
2022-09-17T13:29:46.398Z,10.90
2022-09-17T13:32:34.705Z,10.90
2022-09-17T13:35:10.448Z,10.90
2022-09-17T13:37:52.623Z,11.00
2022-09-17T13:40:26.538Z,11.10
2022-09-17T13:42:56.497Z,11.10
2022-09-17T13:45:25.037Z,11.20
2022-09-17T13:48:05.553Z,11.30
2022-09-17T13:50:36.458Z,11.40
2022-09-17T13:53:15.364Z,11.40
2022-09-17T13:55:52.543Z,11.60
2022-09-17T13:58:19.217Z,11.60
2022-09-17T14:01:06.136Z,11.70
2022-09-17T14:03:40.637Z,11.80
2022-09-17T14:06:21.069Z,11.90
2022-09-17T14:08:47.775Z,11.90
2022-09-17T14:11:23.533Z,11.90
2022-09-17T14:13:57.112Z,12.00
2022-09-17T14:16:36.967Z,12.00
2022-09-17T14:19:16.130Z,12.10
2022-09-17T14:21:46.322Z,12.20
2022-09-17T14:24:22.675Z,12.20
2022-09-17T14:27:17.390Z,12.30
2022-09-17T14:30:01.817Z,12.20
2022-09-17T14:32:43.676Z,12.20
2022-09-17T14:35:43.704Z,12.10
2022-09-17T14:38:22.577Z,12.00
2022-09-17T14:41:12.389Z,12.00
2022-09-17T14:43:58.160Z,12.00
2022-09-17T14:46:28.387Z,12.20
2022-09-17T14:48:55.225Z,12.30
2022-09-17T14:51:25.684Z,12.50
2022-09-17T14:54:05.600Z,12.50
2022-09-17T14:56:34.758Z,12.60
2022-09-17T14:59:02.034Z,12.60
2022-09-17T15:01:30.758Z,12.70
2022-09-17T15:04:12.827Z,12.80
2022-09-17T15:06:40.706Z,12.90
2022-09-17T15:09:18.666Z,12.90
2022-09-17T15:11:48.037Z,12.90
2022-09-17T15:14:21.243Z,12.90
2022-09-17T15:16:49.740Z,13.00
2022-09-17T15:19:28.166Z,13.00
2022-09-17T15:21:57.822Z,13.10
2022-09-17T15:24:38.122Z,13.10
2022-09-17T15:27:21.055Z,13.20
2022-09-17T15:29:54.957Z,13.10
2022-09-17T15:32:22.098Z,13.00
2022-09-17T15:35:13.755Z,13.00
2022-09-17T15:38:18.854Z,12.90
2022-09-17T15:40:41.591Z,12.80
2022-09-17T15:43:31.530Z,12.70
2022-09-17T15:46:18.489Z,12.70
2022-09-17T15:48:45.178Z,12.70
2022-09-17T15:51:34.962Z,12.70
2022-09-17T15:54:05.009Z,12.80
2022-09-17T15:56:38.331Z,12.80
2022-09-17T15:59:26.417Z,12.90
2022-09-17T16:01:55.829Z,13.00
2022-09-17T16:04:31.720Z,13.10
2022-09-17T16:07:12.343Z,13.10
2022-09-17T16:09:43.347Z,13.00
2022-09-17T16:12:16.088Z,13.00
2022-09-17T16:14:44.642Z,13.00
2022-09-17T16:17:23.953Z,13.00
2022-09-17T16:19:51.204Z,12.90
2022-09-17T16:22:17.903Z,13.00
2022-09-17T16:24:44.731Z,13.10
2022-09-17T16:27:18.477Z,13.30
2022-09-17T16:29:45.391Z,13.40
2022-09-17T16:32:12.061Z,13.40
2022-09-17T16:34:38.723Z,13.40
2022-09-17T16:37:05.482Z,13.40
2022-09-17T16:39:32.177Z,13.30
2022-09-17T16:41:58.820Z,13.30
2022-09-17T16:44:25.472Z,13.20
2022-09-17T16:46:52.261Z,13.10
2022-09-17T16:49:18.992Z,13.00
2022-09-17T16:51:45.685Z,12.90
2022-09-17T16:54:12.367Z,12.90
2022-09-17T16:56:39.012Z,12.80
2022-09-17T16:59:05.909Z,12.70
2022-09-17T17:01:32.677Z,12.70
2022-09-17T17:04:00.951Z,12.70
2022-09-17T17:06:27.913Z,12.60
2022-09-17T17:08:54.602Z,12.50
2022-09-17T17:11:21.314Z,12.50
2022-09-17T17:13:48.093Z,12.50
2022-09-17T17:16:15.406Z,12.50
2022-09-17T17:18:43.995Z,12.40
2022-09-17T17:21:13.545Z,12.40
2022-09-17T17:23:43.361Z,12.40
2022-09-17T17:26:10.012Z,12.30
2022-09-17T17:28:36.796Z,12.30
2022-09-17T17:31:05.021Z,12.30
2022-09-17T17:33:32.134Z,12.30
2022-09-17T17:36:07.858Z,12.20
2022-09-17T17:38:35.690Z,12.20
2022-09-17T17:41:14.251Z,12.10
2022-09-17T17:43:42.079Z,12.10
2022-09-17T17:46:10.378Z,12.10
2022-09-17T17:48:37.754Z,12.10
2022-09-17T17:51:06.450Z,12.00
2022-09-17T17:53:33.301Z,11.90
2022-09-17T17:56:02.533Z,11.90
2022-09-17T17:58:29.810Z,11.90
2022-09-17T18:00:56.536Z,11.80
2022-09-17T18:03:27.338Z,11.80
2022-09-17T18:05:58.453Z,11.70
2022-09-17T18:08:25.367Z,11.70
2022-09-17T18:10:56.951Z,11.70
2022-09-17T18:13:24.325Z,11.60
2022-09-17T18:15:56.097Z,11.60
2022-09-17T18:18:24.315Z,11.60
2022-09-17T18:20:53.277Z,11.50
2022-09-17T18:23:20.769Z,11.50
2022-09-17T18:25:55.208Z,11.50
2022-09-17T18:28:22.507Z,11.50
2022-09-17T18:30:50.022Z,11.50
2022-09-17T18:33:23.642Z,11.40
2022-09-17T18:35:57.163Z,11.40
2022-09-17T18:38:24.386Z,11.40
2022-09-17T18:40:51.747Z,11.40
2022-09-17T18:43:18.708Z,11.40
2022-09-17T18:45:58.216Z,11.40
2022-09-17T18:48:25.297Z,11.40
2022-09-17T18:51:06.893Z,11.40
2022-09-17T18:53:36.134Z,11.40
2022-09-17T18:56:16.005Z,11.30
2022-09-17T18:58:45.438Z,11.30
2022-09-17T19:01:12.827Z,11.30
2022-09-17T19:03:39.982Z,11.20
2022-09-17T19:06:09.332Z,11.20
2022-09-17T19:08:36.057Z,11.10
2022-09-17T19:11:03.429Z,11.20
2022-09-17T19:13:35.380Z,11.10
2022-09-17T19:16:02.922Z,11.10
2022-09-17T19:18:29.792Z,11.10
2022-09-17T19:21:05.060Z,11.10
2022-09-17T19:23:32.317Z,11.10
2022-09-17T19:26:10.189Z,11.10
2022-09-17T19:28:37.094Z,11.00
2022-09-17T19:31:08.759Z,10.90
2022-09-17T19:33:35.993Z,10.70
2022-09-17T19:36:05.682Z,10.60
2022-09-17T19:38:33.262Z,10.40
2022-09-17T19:41:06.674Z,10.40
2022-09-17T19:43:33.457Z,10.30
2022-09-17T19:46:11.468Z,10.30
2022-09-17T19:48:47.249Z,10.20
2022-09-17T19:51:14.750Z,10.20
2022-09-17T19:53:41.954Z,10.10
2022-09-17T19:56:20.010Z,10.00
2022-09-17T19:58:47.207Z,10.00
2022-09-17T20:01:15.045Z,9.90
2022-09-17T20:03:44.010Z,9.90
2022-09-17T20:06:13.876Z,9.90
2022-09-17T20:08:48.538Z,9.90
2022-09-17T20:11:16.385Z,9.90
2022-09-17T20:13:43.419Z,9.90
2022-09-17T20:16:16.793Z,9.90
2022-09-17T20:18:46.312Z,9.90
2022-09-17T20:21:15.546Z,9.90
2022-09-17T20:23:42.600Z,10.00
2022-09-17T20:26:10.850Z,9.90
2022-09-17T20:28:38.728Z,9.90
2022-09-17T20:31:18.658Z,9.90
2022-09-17T20:33:46.815Z,9.90
2022-09-17T20:36:16.315Z,9.80
2022-09-17T20:41:31.769Z,9.80
2022-09-17T20:43:58.920Z,9.70
2022-09-17T20:46:29.219Z,9.70
2022-09-17T20:48:58.330Z,9.70
2022-09-17T20:51:27.808Z,9.70
2022-09-17T20:53:54.774Z,9.70
2022-09-17T20:56:27.684Z,9.70
2022-09-17T20:59:03.438Z,9.70
2022-09-17T21:01:34.142Z,9.70
2022-09-17T21:04:01.468Z,9.70
2022-09-17T21:06:33.824Z,9.70
2022-09-17T21:09:00.849Z,9.70
2022-09-17T21:11:29.621Z,9.60
2022-09-17T21:13:56.613Z,9.60
2022-09-17T21:16:23.440Z,9.60
2022-09-17T21:18:56.723Z,9.60
2022-09-17T21:21:23.435Z,9.60
2022-09-17T21:23:50.798Z,9.60
2022-09-17T21:26:19.867Z,9.60
2022-09-17T21:28:48.339Z,9.60
2022-09-17T21:31:17.902Z,9.60
2022-09-17T21:33:46.025Z,9.60
2022-09-17T21:36:13.715Z,9.70
2022-09-17T21:38:40.574Z,9.60
2022-09-17T21:41:10.638Z,9.60
2022-09-17T21:43:37.367Z,9.70
2022-09-17T21:46:05.709Z,9.60
2022-09-17T21:48:34.923Z,9.60
2022-09-17T21:51:03.232Z,9.60
2022-09-17T21:53:30.165Z,9.60
2022-09-17T21:56:02.092Z,9.50
2022-09-17T21:58:28.813Z,9.50
2022-09-17T22:00:55.590Z,9.60
2022-09-17T22:03:22.643Z,9.50
2022-09-17T22:05:49.312Z,9.50
2022-09-17T22:08:15.980Z,9.50
2022-09-17T22:10:42.634Z,9.50
2022-09-17T22:13:09.303Z,9.50
2022-09-17T22:15:36.021Z,9.50
2022-09-17T22:18:04.440Z,9.50
2022-09-17T22:20:31.567Z,9.40
2022-09-17T22:22:58.228Z,9.40
2022-09-17T22:25:25.176Z,9.40
2022-09-17T22:28:16.960Z,9.40
2022-09-17T22:30:39.045Z,9.40
2022-09-17T22:33:06.329Z,9.40
2022-09-17T22:35:34.161Z,9.40
2022-09-17T22:38:00.826Z,9.40
2022-09-17T22:40:27.530Z,9.40
2022-09-17T22:42:55.020Z,9.40
2022-09-17T22:45:21.670Z,9.40
2022-09-17T22:47:48.318Z,9.40
2022-09-17T22:50:15.009Z,9.40
2022-09-17T22:52:41.648Z,9.30
2022-09-17T22:55:08.688Z,9.30
2022-09-17T22:57:35.352Z,9.40
2022-09-17T23:00:02.277Z,9.30
2022-09-17T23:02:29.150Z,9.40
2022-09-17T23:04:57.547Z,9.40
2022-09-17T23:07:24.271Z,9.40
2022-09-17T23:09:52.103Z,9.40
2022-09-17T23:12:21.363Z,9.40
2022-09-17T23:14:48.122Z,9.50
2022-09-17T23:17:14.943Z,9.50
2022-09-17T23:19:41.687Z,9.50
2022-09-17T23:22:08.447Z,9.50
2022-09-17T23:24:37.762Z,9.50
2022-09-17T23:27:04.689Z,9.50
2022-09-17T23:29:31.482Z,9.50
2022-09-17T23:31:58.174Z,9.50
2022-09-17T23:34:24.941Z,9.50
2022-09-17T23:36:51.735Z,9.50
2022-09-17T23:39:19.271Z,9.50
2022-09-17T23:41:47.904Z,9.50
2022-09-17T23:44:16.031Z,9.50
2022-09-17T23:46:44.112Z,9.50
2022-09-17T23:49:12.500Z,9.50
2022-09-17T23:51:39.255Z,9.50
2022-09-17T23:54:07.105Z,9.50
2022-09-17T23:56:34.600Z,9.50
2022-09-17T23:59:01.802Z,9.50
